BAW2817 DAAG-EGKK
Flight info
| Callsign | BAW2817 |
|---|---|
| Flight time | N/A |
| Altitude | 36000 |
| Route | DCT PECES DCT MAMOM DCT ELTAN DCT MHN DCT MEROS DCT LAPIT DCT CHELY DCT LUMAS DCT SOFFY DCT MRM DCT MTL DCT ETREK DCT MADOT DCT MOPEM DCT CACHI DCT AVLON DCT OKRIX DCT BRY DCT CLM DCT KOPOR DCT KESAX DCT KUNAV KUNAV1G |
| Aircraft | A321/M-SDE3FGIJ1KRWXY/SB1 |
Departure
| Time | 2026-05-04 14:20 |
|---|---|
| Airport | Houari Boumediene Airport (DAAG) |
Arrival
| Time | N/A |
|---|---|
| Airport | London Gatwick Airport (EGKK) |
| Time | Latitude | Longitude | Altitude | Speed | Heading |
|---|---|---|---|---|---|
| 2026-05-04 14:05 | 36.69703 | 3.20668 | 70 ft | 0 kts | 6° |
| 2026-05-04 14:06 | 36.69682 | 3.20665 | 62 ft | 4 kts | 9° |
| 2026-05-04 14:06 | 36.69655 | 3.20658 | 64 ft | 4 kts | 15° |
| 2026-05-04 14:07 | 36.69629 | 3.20648 | 65 ft | 4 kts | 25° |
| 2026-05-04 14:07 | 36.69608 | 3.20631 | 61 ft | 4 kts | 53° |
| 2026-05-04 14:07 | 36.69601 | 3.20611 | 63 ft | 1 kts | 91° |
| 2026-05-04 14:07 | 36.69601 | 3.20607 | 61 ft | 0 kts | 91° |
| 2026-05-04 14:11 | 36.69601 | 3.20609 | 63 ft | 0 kts | 91° |
| 2026-05-04 14:15 | 36.69600 | 3.20619 | 62 ft | 2 kts | 91° |
| 2026-05-04 14:16 | 36.69599 | 3.20670 | 53 ft | 4 kts | 91° |
| 2026-05-04 14:16 | 36.69598 | 3.20710 | 70 ft | 5 kts | 91° |
| 2026-05-04 14:17 | 36.69574 | 3.20805 | 67 ft | 7 kts | 139° |
| 2026-05-04 14:17 | 36.69529 | 3.20824 | 65 ft | 7 kts | 167° |
| 2026-05-04 14:17 | 36.69417 | 3.20864 | 70 ft | 9 kts | 162° |
| 2026-05-04 14:18 | 36.69353 | 3.20890 | 66 ft | 10 kts | 162° |
| 2026-05-04 14:18 | 36.69219 | 3.20951 | 64 ft | 10 kts | 161° |
| 2026-05-04 14:19 | 36.69123 | 3.20941 | 73 ft | 5 kts | 224° |
| 2026-05-04 14:19 | 36.69115 | 3.20894 | 74 ft | 7 kts | 268° |
| 2026-05-04 14:19 | 36.69122 | 3.20640 | 76 ft | 64 kts | 271° |
| 2026-05-04 14:19 | 36.69144 | 3.19800 | 71 ft | 128 kts | 271° |
| 2026-05-04 14:20 | 36.69175 | 3.18482 | 89 ft | 174 kts | 269° |
| 2026-05-04 14:20 | 36.69227 | 3.16966 | 745 ft | 169 kts | 275° |
| 2026-05-04 14:20 | 36.69283 | 3.15522 | 1369 ft | 167 kts | 275° |
| 2026-05-04 14:21 | 36.69761 | 3.12376 | 1749 ft | 208 kts | 295° |
| 2026-05-04 14:21 | 36.70567 | 3.10776 | 1906 ft | 231 kts | 311° |
| 2026-05-04 14:21 | 36.71845 | 3.09419 | 2220 ft | 250 kts | 329° |
| 2026-05-04 14:21 | 36.73486 | 3.08591 | 2782 ft | 260 kts | 347° |
| 2026-05-04 14:22 | 36.75316 | 3.08470 | 3318 ft | 270 kts | 8° |
| 2026-05-04 14:22 | 36.77135 | 3.09177 | 3841 ft | 279 kts | 30° |
| 2026-05-04 14:22 | 36.78655 | 3.10682 | 4472 ft | 282 kts | 50° |
| 2026-05-04 14:22 | 36.79954 | 3.12525 | 5141 ft | 286 kts | 50° |
| 2026-05-04 14:23 | 36.82648 | 3.16316 | 6395 ft | 297 kts | 49° |
| 2026-05-04 14:23 | 36.84043 | 3.18264 | 6975 ft | 303 kts | 49° |
| 2026-05-04 14:23 | 36.85454 | 3.20236 | 7570 ft | 308 kts | 48° |
| 2026-05-04 14:24 | 36.86892 | 3.22249 | 8159 ft | 313 kts | 47° |
| 2026-05-04 14:24 | 36.88345 | 3.24293 | 8773 ft | 317 kts | 47° |
| 2026-05-04 14:24 | 36.89815 | 3.26365 | 9363 ft | 322 kts | 47° |
| 2026-05-04 14:24 | 36.91310 | 3.28472 | 9954 ft | 326 kts | 46° |
| 2026-05-04 14:25 | 36.92946 | 3.30442 | 10485 ft | 328 kts | 33° |
| 2026-05-04 14:25 | 36.97059 | 3.32788 | 11399 ft | 336 kts | 12° |
| 2026-05-04 14:25 | 36.99366 | 3.33697 | 11527 ft | 357 kts | 12° |
| 2026-05-04 14:26 | 37.01796 | 3.34656 | 11655 ft | 376 kts | 12° |
| 2026-05-04 14:26 | 37.04335 | 3.35670 | 11945 ft | 388 kts | 13° |
| 2026-05-04 14:26 | 37.06929 | 3.36719 | 12442 ft | 393 kts | 13° |
| 2026-05-04 14:26 | 37.09543 | 3.37784 | 12975 ft | 397 kts | 13° |
| 2026-05-04 14:27 | 37.12183 | 3.38858 | 13504 ft | 401 kts | 13° |
| 2026-05-04 14:27 | 37.14848 | 3.39943 | 14001 ft | 405 kts | 13° |
| 2026-05-04 14:27 | 37.17540 | 3.41039 | 14476 ft | 408 kts | 13° |
| 2026-05-04 14:27 | 37.20249 | 3.42141 | 14958 ft | 411 kts | 13° |
| 2026-05-04 14:28 | 37.22973 | 3.43248 | 15441 ft | 413 kts | 13° |
| 2026-05-04 14:28 | 37.25720 | 3.44366 | 15927 ft | 416 kts | 13° |
| 2026-05-04 14:28 | 37.28486 | 3.45493 | 16405 ft | 419 kts | 13° |
| 2026-05-04 14:28 | 37.31268 | 3.46629 | 16887 ft | 422 kts | 13° |
| 2026-05-04 14:29 | 37.36890 | 3.48917 | 17826 ft | 427 kts | 13° |
| 2026-05-04 14:29 | 37.42587 | 3.51238 | 18643 ft | 433 kts | 13° |
| 2026-05-04 14:30 | 37.45456 | 3.52410 | 19032 ft | 435 kts | 13° |
| 2026-05-04 14:30 | 37.48340 | 3.53589 | 19424 ft | 437 kts | 13° |
| 2026-05-04 14:30 | 37.54144 | 3.55970 | 20210 ft | 440 kts | 14° |
| 2026-05-04 14:31 | 37.57064 | 3.57168 | 20591 ft | 442 kts | 14° |
| 2026-05-04 14:31 | 37.62944 | 3.59586 | 21365 ft | 446 kts | 14° |
| 2026-05-04 14:32 | 37.68885 | 3.62024 | 22081 ft | 451 kts | 14° |
| 2026-05-04 14:32 | 37.71874 | 3.63251 | 22456 ft | 453 kts | 14° |
| 2026-05-04 14:32 | 37.74837 | 3.64471 | 22801 ft | 455 kts | 14° |
| 2026-05-04 14:32 | 37.77855 | 3.65715 | 23156 ft | 457 kts | 14° |
| 2026-05-04 14:33 | 37.80888 | 3.66964 | 23504 ft | 460 kts | 14° |
| 2026-05-04 14:33 | 37.83935 | 3.68222 | 23811 ft | 462 kts | 14° |
| 2026-05-04 14:33 | 37.86998 | 3.69487 | 24100 ft | 464 kts | 14° |
| 2026-05-04 14:33 | 37.90075 | 3.70759 | 24391 ft | 466 kts | 14° |
| 2026-05-04 14:34 | 37.93167 | 3.72039 | 24671 ft | 468 kts | 14° |
| 2026-05-04 14:34 | 37.96266 | 3.73324 | 24955 ft | 470 kts | 14° |
| 2026-05-04 14:34 | 37.99380 | 3.74617 | 25239 ft | 472 kts | 14° |
| 2026-05-04 14:34 | 38.02511 | 3.75919 | 25523 ft | 474 kts | 14° |
| 2026-05-04 14:35 | 38.05656 | 3.77229 | 25798 ft | 476 kts | 14° |
| 2026-05-04 14:35 | 38.08803 | 3.78540 | 26072 ft | 478 kts | 14° |
| 2026-05-04 14:35 | 38.11973 | 3.79862 | 26352 ft | 480 kts | 14° |
| 2026-05-04 14:35 | 38.15156 | 3.81191 | 26617 ft | 482 kts | 14° |
| 2026-05-04 14:36 | 38.18345 | 3.82529 | 26877 ft | 484 kts | 14° |
| 2026-05-04 14:36 | 38.21513 | 3.83858 | 27139 ft | 486 kts | 14° |
| 2026-05-04 14:36 | 38.24775 | 3.85224 | 27398 ft | 488 kts | 14° |
| 2026-05-04 14:36 | 38.27971 | 3.86559 | 27655 ft | 491 kts | 14° |
| 2026-05-04 14:37 | 38.31222 | 3.87915 | 27910 ft | 493 kts | 14° |
| 2026-05-04 14:37 | 38.34484 | 3.89277 | 28148 ft | 495 kts | 15° |
| 2026-05-04 14:37 | 38.37756 | 3.90652 | 28386 ft | 497 kts | 15° |
| 2026-05-04 14:37 | 38.41044 | 3.92035 | 28602 ft | 498 kts | 15° |
| 2026-05-04 14:38 | 38.44347 | 3.93426 | 28819 ft | 500 kts | 15° |
| 2026-05-04 14:38 | 38.47671 | 3.94740 | 29019 ft | 500 kts | 10° |
| 2026-05-04 14:38 | 38.51080 | 3.95557 | 29199 ft | 498 kts | 4° |
| 2026-05-04 14:38 | 38.54513 | 3.96192 | 29395 ft | 499 kts | 4° |
| 2026-05-04 14:39 | 38.57957 | 3.96836 | 29675 ft | 499 kts | 4° |
| 2026-05-04 14:39 | 38.61394 | 3.97482 | 29948 ft | 499 kts | 4° |
| 2026-05-04 14:39 | 38.64822 | 3.98132 | 30186 ft | 499 kts | 4° |
| 2026-05-04 14:40 | 38.71693 | 3.99444 | 30614 ft | 499 kts | 4° |
| 2026-05-04 14:40 | 38.75124 | 4.00102 | 30829 ft | 499 kts | 4° |
| 2026-05-04 14:40 | 38.78560 | 4.00761 | 31048 ft | 499 kts | 4° |
| 2026-05-04 14:40 | 38.81997 | 4.01420 | 31258 ft | 499 kts | 4° |
| 2026-05-04 14:41 | 38.85434 | 4.02077 | 31476 ft | 499 kts | 3° |
| 2026-05-04 14:41 | 38.88876 | 4.02729 | 31698 ft | 499 kts | 3° |
| 2026-05-04 14:41 | 38.95740 | 4.04036 | 32155 ft | 498 kts | 3° |
| 2026-05-04 14:42 | 39.02586 | 4.05348 | 32607 ft | 497 kts | 3° |
| 2026-05-04 14:42 | 39.06007 | 4.06009 | 32836 ft | 497 kts | 3° |
| 2026-05-04 14:42 | 39.09385 | 4.06664 | 33053 ft | 496 kts | 3° |
| 2026-05-04 14:43 | 39.12841 | 4.07331 | 33283 ft | 496 kts | 2° |
| 2026-05-04 14:43 | 39.16256 | 4.07988 | 33512 ft | 495 kts | 2° |
| 2026-05-04 14:43 | 39.19659 | 4.08639 | 33726 ft | 495 kts | 2° |
| 2026-05-04 14:43 | 39.23025 | 4.09284 | 33934 ft | 495 kts | 2° |
| 2026-05-04 14:44 | 39.26471 | 4.09947 | 34127 ft | 494 kts | 2° |
| 2026-05-04 14:44 | 39.29877 | 4.10604 | 34313 ft | 494 kts | 2° |
| 2026-05-04 14:44 | 39.33235 | 4.11255 | 34493 ft | 494 kts | 2° |
| 2026-05-04 14:44 | 39.36637 | 4.11918 | 34683 ft | 494 kts | 2° |
| 2026-05-04 14:45 | 39.40029 | 4.12578 | 34870 ft | 493 kts | 2° |
| 2026-05-04 14:45 | 39.43428 | 4.13239 | 35051 ft | 493 kts | 2° |
| 2026-05-04 14:45 | 39.46821 | 4.13899 | 35249 ft | 492 kts | 2° |
| 2026-05-04 14:45 | 39.50206 | 4.14558 | 35425 ft | 492 kts | 2° |
| 2026-05-04 14:46 | 39.53584 | 4.15215 | 35621 ft | 492 kts | 2° |
| 2026-05-04 14:46 | 39.56977 | 4.15873 | 35797 ft | 491 kts | 2° |
| 2026-05-04 14:46 | 39.60350 | 4.16528 | 35945 ft | 491 kts | 2° |
| 2026-05-04 14:46 | 39.63732 | 4.17186 | 35976 ft | 491 kts | 2° |
| 2026-05-04 14:47 | 39.70485 | 4.18504 | 35974 ft | 491 kts | 2° |
| 2026-05-04 14:47 | 39.77241 | 4.19822 | 35977 ft | 491 kts | 2° |
| 2026-05-04 14:48 | 39.83993 | 4.21145 | 35974 ft | 491 kts | 2° |
| 2026-05-04 14:48 | 39.90745 | 4.22548 | 35980 ft | 492 kts | 4° |
| 2026-05-04 14:49 | 39.96355 | 4.23874 | 35986 ft | 493 kts | 5° |
| 2026-05-04 14:49 | 40.03112 | 4.25532 | 35988 ft | 494 kts | 5° |
| 2026-05-04 14:50 | 40.09864 | 4.27158 | 35986 ft | 494 kts | 4° |
| 2026-05-04 14:50 | 40.16629 | 4.28748 | 35979 ft | 494 kts | 4° |
| 2026-05-04 14:51 | 40.23397 | 4.30334 | 35975 ft | 494 kts | 4° |
| 2026-05-04 14:51 | 40.30162 | 4.31937 | 35976 ft | 495 kts | 4° |
| 2026-05-04 14:52 | 40.36932 | 4.33548 | 35973 ft | 494 kts | 4° |
| 2026-05-04 14:52 | 40.43700 | 4.35155 | 35976 ft | 494 kts | 4° |
| 2026-05-04 14:53 | 40.50472 | 4.36774 | 35973 ft | 495 kts | 4° |
| 2026-05-04 14:53 | 40.57249 | 4.38385 | 35976 ft | 495 kts | 4° |
| 2026-05-04 14:54 | 40.64024 | 4.40000 | 35974 ft | 495 kts | 4° |
| 2026-05-04 14:54 | 40.70809 | 4.41619 | 35972 ft | 495 kts | 4° |
| 2026-05-04 14:55 | 40.77551 | 4.43245 | 35971 ft | 496 kts | 4° |
| 2026-05-04 14:55 | 40.84343 | 4.44881 | 35973 ft | 496 kts | 4° |
| 2026-05-04 14:56 | 40.91134 | 4.46511 | 35972 ft | 496 kts | 4° |
| 2026-05-04 14:56 | 40.97928 | 4.48155 | 35973 ft | 497 kts | 4° |
| 2026-05-04 14:57 | 41.04731 | 4.49820 | 35969 ft | 497 kts | 4° |
| 2026-05-04 14:57 | 41.11540 | 4.51483 | 35968 ft | 498 kts | 4° |
| 2026-05-04 14:58 | 41.18363 | 4.53145 | 35966 ft | 498 kts | 4° |
| 2026-05-04 14:58 | 41.25178 | 4.54815 | 35973 ft | 499 kts | 4° |
| 2026-05-04 14:59 | 41.32012 | 4.56489 | 35973 ft | 499 kts | 4° |
| 2026-05-04 15:00 | 41.42262 | 4.58984 | 35972 ft | 500 kts | 4° |
| 2026-05-04 15:00 | 41.49107 | 4.60663 | 35961 ft | 500 kts | 4° |
| 2026-05-04 15:01 | 41.59370 | 4.63196 | 35972 ft | 500 kts | 4° |
| 2026-05-04 15:01 | 41.66219 | 4.64886 | 35970 ft | 500 kts | 4° |
| 2026-05-04 15:02 | 41.73060 | 4.66612 | 35975 ft | 502 kts | 8° |
| 2026-05-04 15:02 | 41.79816 | 4.69204 | 35967 ft | 505 kts | 11° |
| 2026-05-04 15:03 | 41.86544 | 4.71860 | 35967 ft | 504 kts | 11° |
| 2026-05-04 15:03 | 41.93272 | 4.74489 | 35981 ft | 503 kts | 11° |
| 2026-05-04 15:04 | 41.99996 | 4.77123 | 35981 ft | 503 kts | 11° |
| 2026-05-04 15:04 | 42.06707 | 4.79774 | 35982 ft | 502 kts | 11° |
| 2026-05-04 15:05 | 42.13411 | 4.82436 | 35979 ft | 502 kts | 11° |
| 2026-05-04 15:05 | 42.20063 | 4.85065 | 35977 ft | 501 kts | 11° |
| 2026-05-04 15:06 | 42.26754 | 4.87728 | 35983 ft | 501 kts | 11° |
| 2026-05-04 15:07 | 42.36783 | 4.91718 | 35989 ft | 501 kts | 11° |
| 2026-05-04 15:07 | 42.43464 | 4.94380 | 35987 ft | 501 kts | 11° |
| 2026-05-04 15:08 | 42.50144 | 4.97066 | 35991 ft | 500 kts | 11° |
| 2026-05-04 15:08 | 42.56822 | 4.99739 | 35990 ft | 500 kts | 11° |
| 2026-05-04 15:09 | 42.63503 | 5.02412 | 35998 ft | 500 kts | 11° |
| 2026-05-04 15:09 | 42.70172 | 5.05098 | 36001 ft | 500 kts | 11° |